Archival Weather

Aeroparque Jorge Newbery

Buenos Aires, Argentina (SABE)

Report from: Thursday, September 21, 2023 9:00 AM -03
Current time: Saturday, March 2, 2024 6:46 AM -03

Current weather – Weather history – Daily summaries
Weather forecast

Temperature18.0°C (64.4°F)
Dew point17.0°C (62.6°F)
Winds 3 kts (1.5 m/s, 3.5 mph) Vrb
Winds variableWinds variable from South (180°) to North-Northwest (330°)
Visibility5 mi. (8 km)
Clouds Ceiling: Overcast 600 ft. (183 m)
Altimeter29.80 in.Hg (1009 mB)
Relative humidity94 %
Density altitude762 ft. (232 m)
Remarks Corrected report
No significant changes expected in the next two hours
Flight conditions Instrument Meteorological Conditions
Raw dataCOR SABE 211200Z 24003KT 180V330 8000 OVC006 18/17 Q1009 NOSIG RMK PP000
An error has occurred. This application may no longer respond until reloaded. Reload 🗙